Terminal Aerodrome Forecast
Issued by NWS Grand Forks, ND

Home | Current Version | Previous Version | Text Only | Print | Product List | Glossary On
Versions: 1 2 3 4 5 6 7 8 9 10 11 12 13 14 15 16 17 18 19 20 21
186
FTUS43 KFGF 270520
TAFGFK
TAF
KGFK 270520Z 2706/2806 27009KT P6SM SCT100
     FM270900 33015G24KT P6SM SKC
     FM271400 35022G32KT P6SM FEW050
     FM271800 35022G32KT P6SM BKN035
     FM272200 36016G26KT P6SM FEW060
     FM280200 35013KT P6SM SKC=

USA.gov is the U.S. government's official web portal to all federal, state and local government web resources and services.